Check out our new PWSWeather beta!
PWSweather.com
Personal Weather Stations
Station Observations
TERNAARD
Friesland, TernaardNL

FrieslandTernaardNL

Lat: 53.380557, Lon: 5.969774

Elevation: 3

Station Type: Davis Vantage Pro-2

www.weerstation-ternaard.nl

High Low Average
Temperature 39.8°F4.3°C 36.7°F2.6°C 38.5°F3.6°C
Dew Point 38.8°F3.8°C 35.1°F1.7°C 37.2°F2.9°C
Winds 6.9 mph 11.1 kmh 1.1 mph 1.8 kmh 4.0 mph WSW6.4 kmh WSW
Wind Gusts 10.3 mph16.6 kmh 2.3 mph3.7 kmh 6.0 mph9.7 kmh
Humidity 96% 93% 95%
Pressure 30.14 in1020.7 mb 30.06 in1017.9 mb -
Precipitation 0.01 in0.3 mm - -
Hour Temp Dew Point Humidity Winds Wind Gusts Pressure Precip Precip Rate Daily Precip Total
12:03 AM 39.7°F4.3°C 38.6°F3.7°C 96% 3.4 mph W5.5 kmh W 3.4 mph5.5 kmh 30.13 in1020.3 mb - 0.00 in0.0 mm 0.00 in0.0 mm
12:09 AM 39.7°F4.3°C 38.6°F3.7°C 96% 3.4 mph WNW5.5 kmh WNW 6.9 mph11.1 kmh 30.13 in1020.3 mb - 0.00 in0.0 mm 0.00 in0.0 mm
12:15 AM 39.6°F4.2°C 38.6°F3.7°C 96% 4.6 mph WNW7.4 kmh WNW 9.2 mph14.8 kmh 30.13 in1020.3 mb - 0.00 in0.0 mm 0.00 in0.0 mm
12:20 AM 39.6°F4.2°C 38.6°F3.7°C 96% 3.4 mph WNW5.5 kmh WNW 4.6 mph7.4 kmh 30.13 in1020.3 mb - 0.00 in0.0 mm 0.00 in0.0 mm
12:26 AM 39.7°F4.3°C 38.6°F3.7°C 96% 3.4 mph WSW5.5 kmh WSW 4.6 mph7.4 kmh 30.13 in1020.3 mb - 0.00 in0.0 mm 0.00 in0.0 mm
12:31 AM 39.7°F4.3°C 38.7°F3.7°C 96% 5.8 mph W9.3 kmh W 4.6 mph7.4 kmh 30.13 in1020.3 mb - 0.00 in0.0 mm 0.00 in0.0 mm
12:37 AM 39.7°F4.3°C 38.7°F3.7°C 96% 4.6 mph W7.4 kmh W 6.9 mph11.1 kmh 30.13 in1020.3 mb - 0.00 in0.0 mm 0.00 in0.0 mm
12:43 AM 39.7°F4.3°C 38.7°F3.7°C 96% 2.3 mph WSW3.7 kmh WSW 3.4 mph5.5 kmh 30.13 in1020.3 mb - 0.00 in0.0 mm 0.00 in0.0 mm
12:48 AM 39.7°F4.3°C 38.7°F3.7°C 96% 4.6 mph W7.4 kmh W 5.8 mph9.3 kmh 30.13 in1020.3 mb - 0.00 in0.0 mm 0.00 in0.0 mm
12:54 AM 39.7°F4.3°C 38.7°F3.7°C 96% 5.8 mph WNW9.3 kmh WNW 8.0 mph12.9 kmh 30.13 in1020.3 mb - 0.00 in0.0 mm 0.00 in0.0 mm
01:00 AM 39.7°F4.3°C 38.7°F3.7°C 96% 3.4 mph W5.5 kmh W 3.4 mph5.5 kmh 30.14 in1020.7 mb - 0.00 in0.0 mm 0.00 in0.0 mm
01:05 AM 39.8°F4.3°C 38.7°F3.7°C 96% 4.6 mph WNW7.4 kmh WNW 8.0 mph12.9 kmh 30.13 in1020.3 mb - 0.00 in0.0 mm 0.00 in0.0 mm
01:11 AM 39.7°F4.3°C 38.7°F3.7°C 96% 3.4 mph W5.5 kmh W 3.4 mph5.5 kmh 30.13 in1020.3 mb - 0.00 in0.0 mm 0.00 in0.0 mm
01:16 AM 39.7°F4.3°C 38.7°F3.7°C 96% 3.4 mph W5.5 kmh W 6.9 mph11.1 kmh 30.13 in1020.3 mb - 0.00 in0.0 mm 0.00 in0.0 mm
01:22 AM 39.7°F4.3°C 38.7°F3.7°C 96% 5.8 mph W9.3 kmh W 6.9 mph11.1 kmh 30.13 in1020.3 mb - 0.00 in0.0 mm 0.00 in0.0 mm
01:28 AM 39.7°F4.3°C 38.6°F3.7°C 96% 4.6 mph WSW7.4 kmh WSW 6.9 mph11.1 kmh 30.13 in1020.3 mb - 0.00 in0.0 mm 0.00 in0.0 mm
01:33 AM 39.7°F4.3°C 38.6°F3.7°C 96% 4.6 mph WSW7.4 kmh WSW 4.6 mph7.4 kmh 30.13 in1020.3 mb - 0.00 in0.0 mm 0.00 in0.0 mm
01:39 AM 39.7°F4.3°C 38.7°F3.7°C 96% 3.4 mph W5.5 kmh W 4.6 mph7.4 kmh 30.13 in1020.3 mb - 0.00 in0.0 mm 0.00 in0.0 mm
01:45 AM 39.7°F4.3°C 38.7°F3.7°C 96% 5.8 mph W9.3 kmh W 8.0 mph12.9 kmh 30.13 in1020.3 mb - 0.00 in0.0 mm 0.00 in0.0 mm
01:50 AM 39.7°F4.3°C 38.7°F3.7°C 96% 4.6 mph WNW7.4 kmh WNW 5.8 mph9.3 kmh 30.12 in1020.0 mb - 0.00 in0.0 mm 0.00 in0.0 mm
01:56 AM 39.7°F4.3°C 38.7°F3.7°C 96% 3.4 mph W5.5 kmh W 5.8 mph9.3 kmh 30.12 in1020.0 mb - 0.00 in0.0 mm 0.00 in0.0 mm
02:01 AM 39.8°F4.3°C 38.7°F3.7°C 96% 4.6 mph W7.4 kmh W 5.8 mph9.3 kmh 30.12 in1020.0 mb - 0.00 in0.0 mm 0.00 in0.0 mm
02:07 AM 39.8°F4.3°C 38.7°F3.7°C 96% 4.6 mph W7.4 kmh W 8.0 mph12.9 kmh 30.13 in1020.3 mb - 0.00 in0.0 mm 0.00 in0.0 mm
02:13 AM 39.8°F4.3°C 38.8°F3.8°C 96% 3.4 mph WNW5.5 kmh WNW 5.8 mph9.3 kmh 30.13 in1020.3 mb - 0.00 in0.0 mm 0.00 in0.0 mm
02:18 AM 39.8°F4.3°C 38.8°F3.8°C 96% 3.4 mph WNW5.5 kmh WNW 5.8 mph9.3 kmh 30.12 in1020.0 mb - 0.00 in0.0 mm 0.00 in0.0 mm
02:24 AM 39.8°F4.3°C 38.8°F3.8°C 96% 4.6 mph W7.4 kmh W 6.9 mph11.1 kmh 30.12 in1020.0 mb - 0.00 in0.0 mm 0.00 in0.0 mm
02:30 AM 39.8°F4.3°C 38.8°F3.8°C 96% 2.3 mph W3.7 kmh W 3.4 mph5.5 kmh 30.12 in1020.0 mb - 0.00 in0.0 mm 0.00 in0.0 mm
02:35 AM 39.8°F4.3°C 38.8°F3.8°C 96% 2.3 mph W3.7 kmh W 4.6 mph7.4 kmh 30.13 in1020.3 mb - 0.00 in0.0 mm 0.00 in0.0 mm
02:41 AM 39.8°F4.3°C 38.8°F3.8°C 96% 3.4 mph W5.5 kmh W 4.6 mph7.4 kmh 30.13 in1020.3 mb - 0.00 in0.0 mm 0.00 in0.0 mm
02:46 AM 39.8°F4.3°C 38.8°F3.8°C 96% 3.4 mph WSW5.5 kmh WSW 5.8 mph9.3 kmh 30.13 in1020.3 mb - 0.00 in0.0 mm 0.00 in0.0 mm
02:52 AM 39.8°F4.3°C 38.8°F3.8°C 96% 4.6 mph WNW7.4 kmh WNW 5.8 mph9.3 kmh 30.13 in1020.3 mb - 0.00 in0.0 mm 0.00 in0.0 mm
02:58 AM 39.8°F4.3°C 38.7°F3.7°C 96% 4.6 mph W7.4 kmh W 5.8 mph9.3 kmh 30.13 in1020.3 mb - 0.00 in0.0 mm 0.00 in0.0 mm
03:03 AM 39.8°F4.3°C 38.8°F3.8°C 96% 4.6 mph SW7.4 kmh SW 6.9 mph11.1 kmh 30.13 in1020.3 mb - 0.00 in0.0 mm 0.00 in0.0 mm
03:09 AM 39.7°F4.3°C 38.7°F3.7°C 96% 4.6 mph SW7.4 kmh SW 5.8 mph9.3 kmh 30.13 in1020.3 mb - 0.00 in0.0 mm 0.00 in0.0 mm
03:15 AM 39.7°F4.3°C 38.7°F3.7°C 96% 2.3 mph WSW3.7 kmh WSW 3.4 mph5.5 kmh 30.13 in1020.3 mb - 0.00 in0.0 mm 0.00 in0.0 mm
03:20 AM 39.7°F4.3°C 38.7°F3.7°C 96% 4.6 mph WNW7.4 kmh WNW 5.8 mph9.3 kmh 30.12 in1020.0 mb - 0.00 in0.0 mm 0.00 in0.0 mm
03:26 AM 39.7°F4.3°C 38.6°F3.7°C 96% 4.6 mph WNW7.4 kmh WNW 5.8 mph9.3 kmh 30.12 in1020.0 mb - 0.00 in0.0 mm 0.00 in0.0 mm
03:31 AM 39.7°F4.3°C 38.7°F3.7°C 96% 4.6 mph SW7.4 kmh SW 5.8 mph9.3 kmh 30.12 in1020.0 mb - 0.00 in0.0 mm 0.00 in0.0 mm
03:37 AM 39.6°F4.2°C 38.6°F3.7°C 96% 3.4 mph WNW5.5 kmh WNW 4.6 mph7.4 kmh 30.12 in1020.0 mb - 0.00 in0.0 mm 0.00 in0.0 mm
03:43 AM 39.6°F4.2°C 38.6°F3.7°C 96% 4.6 mph WSW7.4 kmh WSW 5.8 mph9.3 kmh 30.12 in1020.0 mb - 0.00 in0.0 mm 0.00 in0.0 mm
03:48 AM 39.6°F4.2°C 38.6°F3.7°C 96% 4.6 mph WNW7.4 kmh WNW 4.6 mph7.4 kmh 30.11 in1019.6 mb - 0.00 in0.0 mm 0.00 in0.0 mm
03:54 AM 39.6°F4.2°C 38.5°F3.6°C 96% 4.6 mph W7.4 kmh W 5.8 mph9.3 kmh 30.11 in1019.6 mb - 0.00 in0.0 mm 0.00 in0.0 mm
04:00 AM 39.5°F4.2°C 38.5°F3.6°C 96% 3.4 mph WSW5.5 kmh WSW 5.8 mph9.3 kmh 30.11 in1019.6 mb - 0.00 in0.0 mm 0.00 in0.0 mm
04:05 AM 39.5°F4.2°C 38.5°F3.6°C 96% 3.4 mph W5.5 kmh W 8.0 mph12.9 kmh 30.11 in1019.6 mb - 0.00 in0.0 mm 0.00 in0.0 mm
04:11 AM 39.5°F4.2°C 38.5°F3.6°C 96% 4.6 mph WSW7.4 kmh WSW 8.0 mph12.9 kmh 30.11 in1019.6 mb - 0.00 in0.0 mm 0.00 in0.0 mm
04:16 AM 39.5°F4.2°C 38.5°F3.6°C 96% 3.4 mph W5.5 kmh W 3.4 mph5.5 kmh 30.11 in1019.6 mb - 0.00 in0.0 mm 0.00 in0.0 mm
04:22 AM 39.5°F4.2°C 38.5°F3.6°C 96% 3.4 mph W5.5 kmh W 4.6 mph7.4 kmh 30.11 in1019.6 mb - 0.00 in0.0 mm 0.00 in0.0 mm
04:28 AM 39.5°F4.2°C 38.5°F3.6°C 96% 2.3 mph W3.7 kmh W 3.4 mph5.5 kmh 30.11 in1019.6 mb - 0.00 in0.0 mm 0.00 in0.0 mm
04:33 AM 39.5°F4.2°C 38.5°F3.6°C 96% 1.1 mph WSW1.8 kmh WSW 2.3 mph3.7 kmh 30.11 in1019.6 mb - 0.00 in0.0 mm 0.00 in0.0 mm
04:39 AM 39.5°F4.2°C 38.5°F3.6°C 96% 3.4 mph WSW5.5 kmh WSW 5.8 mph9.3 kmh 30.11 in1019.6 mb - 0.00 in0.0 mm 0.00 in0.0 mm
04:45 AM 39.4°F4.1°C 38.4°F3.6°C 96% 5.8 mph W9.3 kmh W 8.0 mph12.9 kmh 30.11 in1019.6 mb - 0.00 in0.0 mm 0.00 in0.0 mm
04:50 AM 39.4°F4.1°C 38.4°F3.6°C 96% 4.6 mph WNW7.4 kmh WNW 6.9 mph11.1 kmh 30.11 in1019.6 mb - 0.00 in0.0 mm 0.00 in0.0 mm
04:56 AM 39.4°F4.1°C 38.4°F3.6°C 96% 3.4 mph WSW5.5 kmh WSW 4.6 mph7.4 kmh 30.11 in1019.6 mb - 0.00 in0.0 mm 0.00 in0.0 mm
05:01 AM 39.4°F4.1°C 38.4°F3.6°C 96% 4.6 mph W7.4 kmh W 6.9 mph11.1 kmh 30.11 in1019.6 mb - 0.00 in0.0 mm 0.00 in0.0 mm
05:07 AM 39.4°F4.1°C 38.4°F3.6°C 96% 2.3 mph WSW3.7 kmh WSW 3.4 mph5.5 kmh 30.10 in1019.3 mb - 0.00 in0.0 mm 0.00 in0.0 mm
05:13 AM 39.4°F4.1°C 38.3°F3.5°C 96% 4.6 mph WSW7.4 kmh WSW 5.8 mph9.3 kmh 30.11 in1019.6 mb - 0.00 in0.0 mm 0.00 in0.0 mm
05:18 AM 39.3°F4.1°C 38.3°F3.5°C 96% 3.4 mph W5.5 kmh W 8.0 mph12.9 kmh 30.10 in1019.3 mb - 0.00 in0.0 mm 0.00 in0.0 mm
05:24 AM 39.3°F4.1°C 38.2°F3.4°C 96% 4.6 mph W7.4 kmh W 6.9 mph11.1 kmh 30.10 in1019.3 mb - 0.00 in0.0 mm 0.00 in0.0 mm
05:30 AM 39.3°F4.1°C 38.2°F3.4°C 96% 3.4 mph WNW5.5 kmh WNW 3.4 mph5.5 kmh 30.10 in1019.3 mb - 0.00 in0.0 mm 0.00 in0.0 mm
05:35 AM 39.3°F4.1°C 38.3°F3.5°C 96% 4.6 mph W7.4 kmh W 6.9 mph11.1 kmh 30.10 in1019.3 mb - 0.00 in0.0 mm 0.00 in0.0 mm
05:41 AM 39.3°F4.1°C 38.2°F3.4°C 96% 3.4 mph WSW5.5 kmh WSW 4.6 mph7.4 kmh 30.10 in1019.3 mb - 0.00 in0.0 mm 0.00 in0.0 mm
05:46 AM 39.3°F4.1°C 38.3°F3.5°C 96% 4.6 mph W7.4 kmh W 5.8 mph9.3 kmh 30.10 in1019.3 mb - 0.00 in0.0 mm 0.00 in0.0 mm
05:52 AM 39.3°F4.1°C 38.3°F3.5°C 96% 3.4 mph W5.5 kmh W 4.6 mph7.4 kmh 30.10 in1019.3 mb - 0.00 in0.0 mm 0.00 in0.0 mm
05:58 AM 39.3°F4.1°C 38.2°F3.4°C 96% 3.4 mph WSW5.5 kmh WSW 4.6 mph7.4 kmh 30.10 in1019.3 mb - 0.00 in0.0 mm 0.00 in0.0 mm
06:03 AM 39.2°F4.0°C 38.2°F3.4°C 96% 4.6 mph WSW7.4 kmh WSW 8.0 mph12.9 kmh 30.10 in1019.3 mb - 0.00 in0.0 mm 0.00 in0.0 mm
06:09 AM 39.2°F4.0°C 38.2°F3.4°C 96% 4.6 mph WSW7.4 kmh WSW 6.9 mph11.1 kmh 30.10 in1019.3 mb - 0.00 in0.0 mm 0.00 in0.0 mm
06:15 AM 39.2°F4.0°C 38.2°F3.4°C 96% 3.4 mph WSW5.5 kmh WSW 3.4 mph5.5 kmh 30.10 in1019.3 mb - 0.00 in0.0 mm 0.00 in0.0 mm
06:20 AM 39.2°F4.0°C 38.2°F3.4°C 96% 1.1 mph WNW1.8 kmh WNW 3.4 mph5.5 kmh 30.10 in1019.3 mb - 0.00 in0.0 mm 0.00 in0.0 mm
06:26 AM 39.2°F4.0°C 38.2°F3.4°C 96% 2.3 mph WSW3.7 kmh WSW 4.6 mph7.4 kmh 30.10 in1019.3 mb - 0.00 in0.0 mm 0.00 in0.0 mm
06:31 AM 39.2°F4.0°C 38.2°F3.4°C 96% 2.3 mph W3.7 kmh W 3.4 mph5.5 kmh 30.10 in1019.3 mb - 0.00 in0.0 mm 0.00 in0.0 mm
06:37 AM 39.2°F4.0°C 38.2°F3.4°C 96% 3.4 mph W5.5 kmh W 3.4 mph5.5 kmh 30.10 in1019.3 mb - 0.00 in0.0 mm 0.00 in0.0 mm
06:43 AM 39.2°F4.0°C 38.1°F3.4°C 96% 2.3 mph W3.7 kmh W 3.4 mph5.5 kmh 30.10 in1019.3 mb - 0.00 in0.0 mm 0.00 in0.0 mm
06:48 AM 39.1°F3.9°C 38.1°F3.4°C 96% 2.3 mph W3.7 kmh W 4.6 mph7.4 kmh 30.11 in1019.6 mb - 0.00 in0.0 mm 0.00 in0.0 mm
06:54 AM 39.1°F3.9°C 38.1°F3.4°C 96% 2.3 mph WSW3.7 kmh WSW 3.4 mph5.5 kmh 30.11 in1019.6 mb - 0.00 in0.0 mm 0.00 in0.0 mm
07:00 AM 39.1°F3.9°C 38.1°F3.4°C 96% 3.4 mph W5.5 kmh W 4.6 mph7.4 kmh 30.11 in1019.6 mb - 0.00 in0.0 mm 0.00 in0.0 mm
07:05 AM 39.2°F4.0°C 38.1°F3.4°C 96% 2.3 mph WNW3.7 kmh WNW 4.6 mph7.4 kmh 30.11 in1019.6 mb - 0.00 in0.0 mm 0.00 in0.0 mm
07:11 AM 39.1°F3.9°C 38.1°F3.4°C 96% 3.4 mph W5.5 kmh W 4.6 mph7.4 kmh 30.11 in1019.6 mb - 0.00 in0.0 mm 0.00 in0.0 mm
07:16 AM 39.1°F3.9°C 38.1°F3.4°C 96% 3.4 mph W5.5 kmh W 3.4 mph5.5 kmh 30.11 in1019.6 mb - 0.00 in0.0 mm 0.00 in0.0 mm
07:22 AM 39.1°F3.9°C 38.1°F3.4°C 96% 2.3 mph W3.7 kmh W 3.4 mph5.5 kmh 30.11 in1019.6 mb - 0.00 in0.0 mm 0.00 in0.0 mm
07:28 AM 39.1°F3.9°C 38.0°F3.3°C 96% 3.4 mph WSW5.5 kmh WSW 4.6 mph7.4 kmh 30.11 in1019.6 mb - 0.00 in0.0 mm 0.00 in0.0 mm
07:33 AM 39.0°F3.9°C 38.0°F3.3°C 96% 2.3 mph WSW3.7 kmh WSW 3.4 mph5.5 kmh 30.11 in1019.6 mb - 0.00 in0.0 mm 0.00 in0.0 mm
07:39 AM 39.1°F3.9°C 38.0°F3.3°C 96% 3.4 mph W5.5 kmh W 5.8 mph9.3 kmh 30.11 in1019.6 mb - 0.00 in0.0 mm 0.00 in0.0 mm
07:45 AM 39.1°F3.9°C 38.1°F3.4°C 96% 2.3 mph WSW3.7 kmh WSW 3.4 mph5.5 kmh 30.11 in1019.6 mb - 0.01 in0.3 mm 0.01 in0.3 mm
07:50 AM 39.1°F3.9°C 38.0°F3.3°C 96% 2.3 mph W3.7 kmh W 3.4 mph5.5 kmh 30.11 in1019.6 mb - 0.01 in0.3 mm 0.01 in0.3 mm
07:56 AM 39.1°F3.9°C 38.0°F3.3°C 96% 2.3 mph WSW3.7 kmh WSW 4.6 mph7.4 kmh 30.11 in1019.6 mb - 0.01 in0.3 mm 0.01 in0.3 mm
08:01 AM 39.1°F3.9°C 38.1°F3.4°C 96% 2.3 mph W3.7 kmh W 3.4 mph5.5 kmh 30.11 in1019.6 mb - 0.01 in0.3 mm 0.01 in0.3 mm
08:07 AM 39.1°F3.9°C 38.0°F3.3°C 96% 2.3 mph W3.7 kmh W 4.6 mph7.4 kmh 30.11 in1019.6 mb - 0.01 in0.3 mm 0.01 in0.3 mm
08:13 AM 39.0°F3.9°C 38.0°F3.3°C 96% 2.3 mph W3.7 kmh W 4.6 mph7.4 kmh 30.11 in1019.6 mb - 0.01 in0.3 mm 0.01 in0.3 mm
08:18 AM 39.0°F3.9°C 38.0°F3.3°C 96% 2.3 mph W3.7 kmh W 3.4 mph5.5 kmh 30.11 in1019.6 mb - 0.01 in0.3 mm 0.01 in0.3 mm
08:24 AM 39.0°F3.9°C 38.0°F3.3°C 96% 1.1 mph W1.8 kmh W 3.4 mph5.5 kmh 30.12 in1020.0 mb - 0.01 in0.3 mm 0.01 in0.3 mm
08:30 AM 39.0°F3.9°C 38.0°F3.3°C 96% 2.3 mph W3.7 kmh W 3.4 mph5.5 kmh 30.12 in1020.0 mb - 0.01 in0.3 mm 0.01 in0.3 mm
08:35 AM 39.0°F3.9°C 38.0°F3.3°C 96% 3.4 mph WSW5.5 kmh WSW 5.8 mph9.3 kmh 30.12 in1020.0 mb - 0.01 in0.3 mm 0.01 in0.3 mm
08:41 AM 39.0°F3.9°C 38.0°F3.3°C 96% 3.4 mph WSW5.5 kmh WSW 3.4 mph5.5 kmh 30.12 in1020.0 mb - 0.01 in0.3 mm 0.01 in0.3 mm
08:46 AM 39.0°F3.9°C 38.0°F3.3°C 96% 2.3 mph WSW3.7 kmh WSW 3.4 mph5.5 kmh 30.12 in1020.0 mb - 0.01 in0.3 mm 0.01 in0.3 mm
08:52 AM 39.0°F3.9°C 38.0°F3.3°C 96% 3.4 mph WSW5.5 kmh WSW 4.6 mph7.4 kmh 30.12 in1020.0 mb - 0.01 in0.3 mm 0.01 in0.3 mm
08:58 AM 39.0°F3.9°C 37.9°F3.3°C 96% 2.3 mph WSW3.7 kmh WSW 3.4 mph5.5 kmh 30.12 in1020.0 mb - 0.01 in0.3 mm 0.01 in0.3 mm
09:03 AM 39.0°F3.9°C 38.0°F3.3°C 96% 2.3 mph W3.7 kmh W 3.4 mph5.5 kmh 30.12 in1020.0 mb - 0.01 in0.3 mm 0.01 in0.3 mm
09:09 AM 39.0°F3.9°C 37.9°F3.3°C 96% 2.3 mph W3.7 kmh W 3.4 mph5.5 kmh 30.12 in1020.0 mb - 0.01 in0.3 mm 0.01 in0.3 mm
09:15 AM 39.0°F3.9°C 38.0°F3.3°C 96% 2.3 mph W3.7 kmh W 3.4 mph5.5 kmh 30.12 in1020.0 mb - 0.01 in0.3 mm 0.01 in0.3 mm
09:20 AM 39.0°F3.9°C 38.0°F3.3°C 96% 5.8 mph W9.3 kmh W 9.2 mph14.8 kmh 30.12 in1020.0 mb - 0.01 in0.3 mm 0.01 in0.3 mm
09:26 AM 39.0°F3.9°C 37.9°F3.3°C 96% 3.4 mph W5.5 kmh W 3.4 mph5.5 kmh 30.12 in1020.0 mb - 0.01 in0.3 mm 0.01 in0.3 mm
09:31 AM 38.9°F3.8°C 37.9°F3.3°C 96% 3.4 mph W5.5 kmh W 3.4 mph5.5 kmh 30.12 in1020.0 mb - 0.01 in0.3 mm 0.01 in0.3 mm
09:37 AM 38.9°F3.8°C 37.9°F3.3°C 96% 2.3 mph WSW3.7 kmh WSW 3.4 mph5.5 kmh 30.12 in1020.0 mb - 0.01 in0.3 mm 0.01 in0.3 mm
09:43 AM 38.9°F3.8°C 37.9°F3.3°C 96% 3.4 mph W5.5 kmh W 6.9 mph11.1 kmh 30.12 in1020.0 mb - 0.01 in0.3 mm 0.01 in0.3 mm
09:48 AM 38.9°F3.8°C 37.8°F3.2°C 96% 4.6 mph WSW7.4 kmh WSW 5.8 mph9.3 kmh 30.12 in1020.0 mb - 0.01 in0.3 mm 0.01 in0.3 mm
09:54 AM 38.8°F3.8°C 37.8°F3.2°C 96% 3.4 mph W5.5 kmh W 4.6 mph7.4 kmh 30.12 in1020.0 mb - 0.01 in0.3 mm 0.01 in0.3 mm
10:00 AM 38.8°F3.8°C 37.8°F3.2°C 96% 3.4 mph WSW5.5 kmh WSW 5.8 mph9.3 kmh 30.12 in1020.0 mb - 0.01 in0.3 mm 0.01 in0.3 mm
10:05 AM 38.8°F3.8°C 37.8°F3.2°C 96% 3.4 mph W5.5 kmh W 3.4 mph5.5 kmh 30.12 in1020.0 mb - 0.01 in0.3 mm 0.01 in0.3 mm
10:11 AM 38.7°F3.7°C 37.7°F3.2°C 96% 5.8 mph WSW9.3 kmh WSW 10.3 mph16.6 kmh 30.12 in1020.0 mb - 0.01 in0.3 mm 0.01 in0.3 mm
10:16 AM 38.7°F3.7°C 37.7°F3.2°C 96% 3.4 mph W5.5 kmh W 5.8 mph9.3 kmh 30.12 in1020.0 mb - 0.01 in0.3 mm 0.01 in0.3 mm
10:22 AM 38.7°F3.7°C 37.7°F3.2°C 96% 3.4 mph WSW5.5 kmh WSW 5.8 mph9.3 kmh 30.12 in1020.0 mb - 0.01 in0.3 mm 0.01 in0.3 mm
10:28 AM 38.7°F3.7°C 37.7°F3.2°C 96% 4.6 mph W7.4 kmh W 8.0 mph12.9 kmh 30.12 in1020.0 mb - 0.01 in0.3 mm 0.01 in0.3 mm
10:33 AM 38.7°F3.7°C 37.7°F3.2°C 96% 3.4 mph WSW5.5 kmh WSW 3.4 mph5.5 kmh 30.13 in1020.3 mb - 0.01 in0.3 mm 0.01 in0.3 mm
10:39 AM 38.7°F3.7°C 37.7°F3.2°C 96% 3.4 mph W5.5 kmh W 3.4 mph5.5 kmh 30.13 in1020.3 mb - 0.01 in0.3 mm 0.01 in0.3 mm
10:45 AM 38.8°F3.8°C 37.8°F3.2°C 96% 2.3 mph W3.7 kmh W 3.4 mph5.5 kmh 30.13 in1020.3 mb - 0.01 in0.3 mm 0.01 in0.3 mm
10:50 AM 38.9°F3.8°C 37.8°F3.2°C 96% 3.4 mph WSW5.5 kmh WSW 3.4 mph5.5 kmh 30.13 in1020.3 mb - 0.01 in0.3 mm 0.01 in0.3 mm
10:56 AM 38.9°F3.8°C 37.9°F3.3°C 96% 3.4 mph W5.5 kmh W 4.6 mph7.4 kmh 30.13 in1020.3 mb - 0.01 in0.3 mm 0.01 in0.3 mm
11:01 AM 38.9°F3.8°C 37.9°F3.3°C 96% 2.3 mph WSW3.7 kmh WSW 3.4 mph5.5 kmh 30.13 in1020.3 mb - 0.01 in0.3 mm 0.01 in0.3 mm
11:07 AM 38.9°F3.8°C 37.8°F3.2°C 96% 3.4 mph W5.5 kmh W 4.6 mph7.4 kmh 30.13 in1020.3 mb - 0.01 in0.3 mm 0.01 in0.3 mm
11:13 AM 38.8°F3.8°C 37.8°F3.2°C 96% 3.4 mph W5.5 kmh W 4.6 mph7.4 kmh 30.13 in1020.3 mb - 0.01 in0.3 mm 0.01 in0.3 mm
11:18 AM 38.8°F3.8°C 37.7°F3.2°C 96% 2.3 mph W3.7 kmh W 4.6 mph7.4 kmh 30.14 in1020.7 mb - 0.01 in0.3 mm 0.01 in0.3 mm
11:24 AM 38.8°F3.8°C 37.8°F3.2°C 96% 3.4 mph WSW5.5 kmh WSW 3.4 mph5.5 kmh 30.14 in1020.7 mb - 0.01 in0.3 mm 0.01 in0.3 mm
11:30 AM 38.8°F3.8°C 37.8°F3.2°C 96% 4.6 mph WNW7.4 kmh WNW 5.8 mph9.3 kmh 30.14 in1020.7 mb - 0.01 in0.3 mm 0.01 in0.3 mm
11:35 AM 38.8°F3.8°C 37.8°F3.2°C 96% 3.4 mph W5.5 kmh W 5.8 mph9.3 kmh 30.14 in1020.7 mb - 0.01 in0.3 mm 0.01 in0.3 mm
11:41 AM 38.9°F3.8°C 37.9°F3.3°C 96% 4.6 mph WSW7.4 kmh WSW 5.8 mph9.3 kmh 30.14 in1020.7 mb - 0.01 in0.3 mm 0.01 in0.3 mm
11:46 AM 38.9°F3.8°C 37.9°F3.3°C 96% 3.4 mph WSW5.5 kmh WSW 6.9 mph11.1 kmh 30.14 in1020.7 mb - 0.01 in0.3 mm 0.01 in0.3 mm
11:52 AM 38.9°F3.8°C 37.9°F3.3°C 96% 5.8 mph W9.3 kmh W 8.0 mph12.9 kmh 30.14 in1020.7 mb - 0.01 in0.3 mm 0.01 in0.3 mm
11:58 AM 38.9°F3.8°C 37.8°F3.2°C 96% 3.4 mph WNW5.5 kmh WNW 3.4 mph5.5 kmh 30.14 in1020.7 mb - 0.01 in0.3 mm 0.01 in0.3 mm
12:03 PM 38.9°F3.8°C 37.9°F3.3°C 96% 4.6 mph WSW7.4 kmh WSW 9.2 mph14.8 kmh 30.14 in1020.7 mb - 0.01 in0.3 mm 0.01 in0.3 mm
12:09 PM 38.9°F3.8°C 37.9°F3.3°C 96% 3.4 mph WSW5.5 kmh WSW 3.4 mph5.5 kmh 30.14 in1020.7 mb - 0.01 in0.3 mm 0.01 in0.3 mm
12:15 PM 38.8°F3.8°C 37.8°F3.2°C 96% 3.4 mph WSW5.5 kmh WSW 3.4 mph5.5 kmh 30.14 in1020.7 mb - 0.01 in0.3 mm 0.01 in0.3 mm
12:20 PM 38.8°F3.8°C 37.8°F3.2°C 96% 3.4 mph W5.5 kmh W 3.4 mph5.5 kmh 30.14 in1020.7 mb - 0.01 in0.3 mm 0.01 in0.3 mm
12:26 PM 38.9°F3.8°C 37.9°F3.3°C 96% 4.6 mph WSW7.4 kmh WSW 8.0 mph12.9 kmh 30.13 in1020.3 mb - 0.01 in0.3 mm 0.01 in0.3 mm
12:31 PM 38.9°F3.8°C 37.9°F3.3°C 96% 3.4 mph W5.5 kmh W 4.6 mph7.4 kmh 30.13 in1020.3 mb - 0.01 in0.3 mm 0.01 in0.3 mm
12:37 PM 38.9°F3.8°C 37.9°F3.3°C 96% 4.6 mph WSW7.4 kmh WSW 5.8 mph9.3 kmh 30.13 in1020.3 mb - 0.01 in0.3 mm 0.01 in0.3 mm
12:43 PM 38.9°F3.8°C 37.6°F3.1°C 95% 4.6 mph WSW7.4 kmh WSW 5.8 mph9.3 kmh 30.13 in1020.3 mb - 0.01 in0.3 mm 0.01 in0.3 mm
12:48 PM 38.8°F3.8°C 37.5°F3.1°C 95% 2.3 mph WSW3.7 kmh WSW 3.4 mph5.5 kmh 30.13 in1020.3 mb - 0.01 in0.3 mm 0.01 in0.3 mm
12:54 PM 38.8°F3.8°C 37.5°F3.1°C 95% 2.3 mph WSW3.7 kmh WSW 3.4 mph5.5 kmh 30.13 in1020.3 mb - 0.01 in0.3 mm 0.01 in0.3 mm
01:00 PM 38.9°F3.8°C 37.6°F3.1°C 95% 2.3 mph WSW3.7 kmh WSW 2.3 mph3.7 kmh 30.13 in1020.3 mb - 0.01 in0.3 mm 0.01 in0.3 mm
01:05 PM 38.8°F3.8°C 37.5°F3.1°C 95% 3.4 mph WSW5.5 kmh WSW 4.6 mph7.4 kmh 30.12 in1020.0 mb - 0.01 in0.3 mm 0.01 in0.3 mm
01:11 PM 38.8°F3.8°C 37.5°F3.1°C 95% 2.3 mph WSW3.7 kmh WSW 4.6 mph7.4 kmh 30.12 in1020.0 mb - 0.01 in0.3 mm 0.01 in0.3 mm
01:16 PM 38.7°F3.7°C 37.4°F3.0°C 95% 4.6 mph WSW7.4 kmh WSW 8.0 mph12.9 kmh 30.12 in1020.0 mb - 0.01 in0.3 mm 0.01 in0.3 mm
01:22 PM 38.7°F3.7°C 37.4°F3.0°C 95% 3.4 mph WSW5.5 kmh WSW 5.8 mph9.3 kmh 30.12 in1020.0 mb - 0.01 in0.3 mm 0.01 in0.3 mm
01:28 PM 38.7°F3.7°C 37.4°F3.0°C 95% 3.4 mph WNW5.5 kmh WNW 3.4 mph5.5 kmh 30.12 in1020.0 mb - 0.01 in0.3 mm 0.01 in0.3 mm
01:33 PM 38.8°F3.8°C 37.5°F3.1°C 95% 2.3 mph W3.7 kmh W 3.4 mph5.5 kmh 30.12 in1020.0 mb - 0.01 in0.3 mm 0.01 in0.3 mm
01:39 PM 38.8°F3.8°C 37.5°F3.1°C 95% 3.4 mph WSW5.5 kmh WSW 4.6 mph7.4 kmh 30.12 in1020.0 mb - 0.01 in0.3 mm 0.01 in0.3 mm
01:45 PM 38.7°F3.7°C 37.4°F3.0°C 95% 3.4 mph W5.5 kmh W 4.6 mph7.4 kmh 30.12 in1020.0 mb - 0.01 in0.3 mm 0.01 in0.3 mm
01:50 PM 38.7°F3.7°C 37.4°F3.0°C 95% 3.4 mph WSW5.5 kmh WSW 5.8 mph9.3 kmh 30.11 in1019.6 mb - 0.01 in0.3 mm 0.01 in0.3 mm
01:56 PM 38.7°F3.7°C 37.4°F3.0°C 95% 2.3 mph W3.7 kmh W 3.4 mph5.5 kmh 30.12 in1020.0 mb - 0.01 in0.3 mm 0.01 in0.3 mm
02:01 PM 38.7°F3.7°C 37.4°F3.0°C 95% 6.9 mph WSW11.1 kmh WSW 8.0 mph12.9 kmh 30.12 in1020.0 mb - 0.01 in0.3 mm 0.01 in0.3 mm
02:07 PM 38.5°F3.6°C 37.2°F2.9°C 95% 4.6 mph WSW7.4 kmh WSW 9.2 mph14.8 kmh 30.11 in1019.6 mb - 0.01 in0.3 mm 0.01 in0.3 mm
02:13 PM 38.4°F3.6°C 37.1°F2.8°C 95% 3.4 mph WSW5.5 kmh WSW 4.6 mph7.4 kmh 30.11 in1019.6 mb - 0.01 in0.3 mm 0.01 in0.3 mm
02:18 PM 38.4°F3.6°C 37.1°F2.8°C 95% 2.3 mph WSW3.7 kmh WSW 3.4 mph5.5 kmh 30.11 in1019.6 mb - 0.01 in0.3 mm 0.01 in0.3 mm
02:24 PM 38.4°F3.6°C 37.1°F2.8°C 95% 3.4 mph WSW5.5 kmh WSW 5.8 mph9.3 kmh 30.11 in1019.6 mb - 0.01 in0.3 mm 0.01 in0.3 mm
02:30 PM 38.3°F3.5°C 37.0°F2.8°C 95% 3.4 mph WSW5.5 kmh WSW 5.8 mph9.3 kmh 30.11 in1019.6 mb - 0.01 in0.3 mm 0.01 in0.3 mm
02:35 PM 38.3°F3.5°C 37.0°F2.8°C 95% 2.3 mph WSW3.7 kmh WSW 3.4 mph5.5 kmh 30.11 in1019.6 mb - 0.01 in0.3 mm 0.01 in0.3 mm
02:41 PM 38.3°F3.5°C 37.0°F2.8°C 95% 4.6 mph WSW7.4 kmh WSW 5.8 mph9.3 kmh 30.11 in1019.6 mb - 0.01 in0.3 mm 0.01 in0.3 mm
02:46 PM 38.3°F3.5°C 37.0°F2.8°C 95% 3.4 mph WSW5.5 kmh WSW 4.6 mph7.4 kmh 30.11 in1019.6 mb - 0.01 in0.3 mm 0.01 in0.3 mm
02:52 PM 38.3°F3.5°C 37.0°F2.8°C 95% 4.6 mph WSW7.4 kmh WSW 5.8 mph9.3 kmh 30.11 in1019.6 mb - 0.01 in0.3 mm 0.01 in0.3 mm
02:58 PM 38.3°F3.5°C 37.0°F2.8°C 95% 3.4 mph WNW5.5 kmh WNW 4.6 mph7.4 kmh 30.11 in1019.6 mb - 0.01 in0.3 mm 0.01 in0.3 mm
03:03 PM 38.3°F3.5°C 37.0°F2.8°C 95% 4.6 mph W7.4 kmh W 4.6 mph7.4 kmh 30.10 in1019.3 mb - 0.01 in0.3 mm 0.01 in0.3 mm
03:09 PM 38.3°F3.5°C 37.0°F2.8°C 95% 2.3 mph W3.7 kmh W 3.4 mph5.5 kmh 30.10 in1019.3 mb - 0.01 in0.3 mm 0.01 in0.3 mm
03:15 PM 38.3°F3.5°C 37.0°F2.8°C 95% 4.6 mph WSW7.4 kmh WSW 5.8 mph9.3 kmh 30.10 in1019.3 mb - 0.01 in0.3 mm 0.01 in0.3 mm
03:20 PM 38.3°F3.5°C 37.0°F2.8°C 95% 5.8 mph WSW9.3 kmh WSW 5.8 mph9.3 kmh 30.10 in1019.3 mb - 0.01 in0.3 mm 0.01 in0.3 mm
03:26 PM 38.2°F3.4°C 36.9°F2.7°C 95% 4.6 mph WSW7.4 kmh WSW 5.8 mph9.3 kmh 30.10 in1019.3 mb - 0.01 in0.3 mm 0.01 in0.3 mm
03:31 PM 38.2°F3.4°C 36.9°F2.7°C 95% 4.6 mph WSW7.4 kmh WSW 6.9 mph11.1 kmh 30.09 in1019.0 mb - 0.01 in0.3 mm 0.01 in0.3 mm
03:37 PM 38.2°F3.4°C 36.9°F2.7°C 95% 4.6 mph WSW7.4 kmh WSW 4.6 mph7.4 kmh 30.09 in1019.0 mb - 0.01 in0.3 mm 0.01 in0.3 mm
03:43 PM 38.2°F3.4°C 36.9°F2.7°C 95% 6.9 mph WSW11.1 kmh WSW 8.0 mph12.9 kmh 30.09 in1019.0 mb - 0.01 in0.3 mm 0.01 in0.3 mm
03:48 PM 38.1°F3.4°C 36.8°F2.7°C 95% 3.4 mph WSW5.5 kmh WSW 3.4 mph5.5 kmh 30.09 in1019.0 mb - 0.01 in0.3 mm 0.01 in0.3 mm
03:54 PM 38.1°F3.4°C 36.8°F2.7°C 95% 4.6 mph WSW7.4 kmh WSW 5.8 mph9.3 kmh 30.09 in1019.0 mb - 0.01 in0.3 mm 0.01 in0.3 mm
04:00 PM 38.0°F3.3°C 36.7°F2.6°C 95% 2.3 mph WSW3.7 kmh WSW 3.4 mph5.5 kmh 30.09 in1019.0 mb - 0.01 in0.3 mm 0.01 in0.3 mm
04:05 PM 38.1°F3.4°C 36.5°F2.5°C 94% 4.6 mph WSW7.4 kmh WSW 6.9 mph11.1 kmh 30.09 in1019.0 mb - 0.01 in0.3 mm 0.01 in0.3 mm
04:11 PM 38.1°F3.4°C 36.5°F2.5°C 94% 5.8 mph SW9.3 kmh SW 8.0 mph12.9 kmh 30.09 in1019.0 mb - 0.01 in0.3 mm 0.01 in0.3 mm
04:16 PM 38.0°F3.3°C 36.7°F2.6°C 95% 4.6 mph WSW7.4 kmh WSW 5.8 mph9.3 kmh 30.09 in1019.0 mb - 0.01 in0.3 mm 0.01 in0.3 mm
04:22 PM 38.0°F3.3°C 36.4°F2.4°C 94% 4.6 mph SW7.4 kmh SW 5.8 mph9.3 kmh 30.09 in1019.0 mb - 0.01 in0.3 mm 0.01 in0.3 mm
04:28 PM 38.0°F3.3°C 36.4°F2.4°C 94% 4.6 mph WSW7.4 kmh WSW 6.9 mph11.1 kmh 30.09 in1019.0 mb - 0.01 in0.3 mm 0.01 in0.3 mm
04:33 PM 37.9°F3.3°C 36.3°F2.4°C 94% 3.4 mph WSW5.5 kmh WSW 6.9 mph11.1 kmh 30.08 in1018.6 mb - 0.01 in0.3 mm 0.01 in0.3 mm
04:39 PM 37.9°F3.3°C 36.3°F2.4°C 94% 4.6 mph WSW7.4 kmh WSW 4.6 mph7.4 kmh 30.08 in1018.6 mb - 0.01 in0.3 mm 0.01 in0.3 mm
04:45 PM 37.8°F3.2°C 36.2°F2.3°C 94% 4.6 mph SW7.4 kmh SW 10.3 mph16.6 kmh 30.08 in1018.6 mb - 0.01 in0.3 mm 0.01 in0.3 mm
04:50 PM 37.8°F3.2°C 36.2°F2.3°C 94% 3.4 mph SW5.5 kmh SW 8.0 mph12.9 kmh 30.09 in1019.0 mb - 0.01 in0.3 mm 0.01 in0.3 mm
04:56 PM 37.8°F3.2°C 36.2°F2.3°C 94% 2.3 mph WSW3.7 kmh WSW 3.4 mph5.5 kmh 30.08 in1018.6 mb - 0.01 in0.3 mm 0.01 in0.3 mm
05:01 PM 37.8°F3.2°C 36.2°F2.3°C 94% 2.3 mph WNW3.7 kmh WNW 3.4 mph5.5 kmh 30.08 in1018.6 mb - 0.01 in0.3 mm 0.01 in0.3 mm
05:07 PM 37.8°F3.2°C 36.2°F2.3°C 94% 2.3 mph SW3.7 kmh SW 4.6 mph7.4 kmh 30.08 in1018.6 mb - 0.01 in0.3 mm 0.01 in0.3 mm
05:13 PM 37.8°F3.2°C 36.2°F2.3°C 94% 2.3 mph WNW3.7 kmh WNW 3.4 mph5.5 kmh 30.08 in1018.6 mb - 0.01 in0.3 mm 0.01 in0.3 mm
05:18 PM 37.8°F3.2°C 36.2°F2.3°C 94% 2.3 mph W3.7 kmh W 3.4 mph5.5 kmh 30.09 in1019.0 mb - 0.01 in0.3 mm 0.01 in0.3 mm
05:24 PM 37.8°F3.2°C 36.2°F2.3°C 94% 3.4 mph WSW5.5 kmh WSW 5.8 mph9.3 kmh 30.09 in1019.0 mb - 0.01 in0.3 mm 0.01 in0.3 mm
05:30 PM 37.8°F3.2°C 36.2°F2.3°C 94% 2.3 mph WSW3.7 kmh WSW 3.4 mph5.5 kmh 30.09 in1019.0 mb - 0.01 in0.3 mm 0.01 in0.3 mm
05:35 PM 37.8°F3.2°C 36.2°F2.3°C 94% 2.3 mph W3.7 kmh W 3.4 mph5.5 kmh 30.09 in1019.0 mb - 0.01 in0.3 mm 0.01 in0.3 mm
05:41 PM 37.8°F3.2°C 36.2°F2.3°C 94% 3.4 mph WSW5.5 kmh WSW 6.9 mph11.1 kmh 30.08 in1018.6 mb - 0.01 in0.3 mm 0.01 in0.3 mm
05:46 PM 37.8°F3.2°C 36.2°F2.3°C 94% 4.6 mph WSW7.4 kmh WSW 4.6 mph7.4 kmh 30.08 in1018.6 mb - 0.01 in0.3 mm 0.01 in0.3 mm
05:52 PM 37.7°F3.2°C 36.1°F2.3°C 94% 3.4 mph WSW5.5 kmh WSW 4.6 mph7.4 kmh 30.09 in1019.0 mb - 0.01 in0.3 mm 0.01 in0.3 mm
05:58 PM 37.7°F3.2°C 36.1°F2.3°C 94% 3.4 mph W5.5 kmh W 4.6 mph7.4 kmh 30.08 in1018.6 mb - 0.01 in0.3 mm 0.01 in0.3 mm
06:03 PM 37.7°F3.2°C 36.1°F2.3°C 94% 4.6 mph WSW7.4 kmh WSW 6.9 mph11.1 kmh 30.09 in1019.0 mb - 0.01 in0.3 mm 0.01 in0.3 mm
06:09 PM 37.7°F3.2°C 36.1°F2.3°C 94% 3.4 mph WSW5.5 kmh WSW 4.6 mph7.4 kmh 30.08 in1018.6 mb - 0.01 in0.3 mm 0.01 in0.3 mm
06:15 PM 37.6°F3.1°C 36.1°F2.3°C 94% 4.6 mph SW7.4 kmh SW 10.3 mph16.6 kmh 30.09 in1019.0 mb - 0.01 in0.3 mm 0.01 in0.3 mm
06:20 PM 37.6°F3.1°C 36.0°F2.2°C 94% 4.6 mph WSW7.4 kmh WSW 6.9 mph11.1 kmh 30.09 in1019.0 mb - 0.01 in0.3 mm 0.01 in0.3 mm
06:26 PM 37.6°F3.1°C 36.0°F2.2°C 94% 5.8 mph WSW9.3 kmh WSW 8.0 mph12.9 kmh 30.09 in1019.0 mb - 0.01 in0.3 mm 0.01 in0.3 mm
06:31 PM 37.6°F3.1°C 36.0°F2.2°C 94% 4.6 mph W7.4 kmh W 5.8 mph9.3 kmh 30.09 in1019.0 mb - 0.01 in0.3 mm 0.01 in0.3 mm
06:37 PM 37.5°F3.1°C 35.9°F2.2°C 94% 4.6 mph WSW7.4 kmh WSW 8.0 mph12.9 kmh 30.09 in1019.0 mb - 0.01 in0.3 mm 0.01 in0.3 mm
06:43 PM 37.6°F3.1°C 36.0°F2.2°C 94% 3.4 mph WSW5.5 kmh WSW 6.9 mph11.1 kmh 30.09 in1019.0 mb - 0.01 in0.3 mm 0.01 in0.3 mm
06:48 PM 37.6°F3.1°C 36.0°F2.2°C 94% 4.6 mph WSW7.4 kmh WSW 6.9 mph11.1 kmh 30.09 in1019.0 mb - 0.01 in0.3 mm 0.01 in0.3 mm
06:54 PM 37.5°F3.1°C 35.9°F2.2°C 94% 3.4 mph WSW5.5 kmh WSW 5.8 mph9.3 kmh 30.09 in1019.0 mb - 0.01 in0.3 mm 0.01 in0.3 mm
07:00 PM 37.5°F3.1°C 36.0°F2.2°C 94% 4.6 mph WSW7.4 kmh WSW 5.8 mph9.3 kmh 30.09 in1019.0 mb - 0.01 in0.3 mm 0.01 in0.3 mm
07:05 PM 37.5°F3.1°C 35.9°F2.2°C 94% 3.4 mph WSW5.5 kmh WSW 5.8 mph9.3 kmh 30.09 in1019.0 mb - 0.01 in0.3 mm 0.01 in0.3 mm
07:11 PM 37.5°F3.1°C 35.9°F2.2°C 94% 4.6 mph W7.4 kmh W 6.9 mph11.1 kmh 30.09 in1019.0 mb - 0.01 in0.3 mm 0.01 in0.3 mm
07:16 PM 37.5°F3.1°C 35.9°F2.2°C 94% 4.6 mph WSW7.4 kmh WSW 9.2 mph14.8 kmh 30.09 in1019.0 mb - 0.01 in0.3 mm 0.01 in0.3 mm
07:22 PM 37.4°F3.0°C 35.8°F2.1°C 94% 4.6 mph WSW7.4 kmh WSW 9.2 mph14.8 kmh 30.09 in1019.0 mb - 0.01 in0.3 mm 0.01 in0.3 mm
07:28 PM 37.5°F3.1°C 35.7°F2.1°C 93% 3.4 mph SW5.5 kmh SW 5.8 mph9.3 kmh 30.09 in1019.0 mb - 0.01 in0.3 mm 0.01 in0.3 mm
07:33 PM 37.5°F3.1°C 35.7°F2.1°C 93% 4.6 mph WSW7.4 kmh WSW 10.3 mph16.6 kmh 30.09 in1019.0 mb - 0.01 in0.3 mm 0.01 in0.3 mm
07:39 PM 37.5°F3.1°C 35.7°F2.1°C 93% 4.6 mph WSW7.4 kmh WSW 5.8 mph9.3 kmh 30.09 in1019.0 mb - 0.01 in0.3 mm 0.01 in0.3 mm
07:45 PM 37.5°F3.1°C 35.6°F2.0°C 93% 3.4 mph WSW5.5 kmh WSW 3.4 mph5.5 kmh 30.09 in1019.0 mb - 0.01 in0.3 mm 0.01 in0.3 mm
07:50 PM 37.4°F3.0°C 35.6°F2.0°C 93% 3.4 mph W5.5 kmh W 5.8 mph9.3 kmh 30.09 in1019.0 mb - 0.01 in0.3 mm 0.01 in0.3 mm
07:56 PM 37.5°F3.1°C 35.6°F2.0°C 93% 4.6 mph WSW7.4 kmh WSW 8.0 mph12.9 kmh 30.09 in1019.0 mb - 0.01 in0.3 mm 0.01 in0.3 mm
08:01 PM 37.4°F3.0°C 35.6°F2.0°C 93% 5.8 mph WSW9.3 kmh WSW 8.0 mph12.9 kmh 30.09 in1019.0 mb - 0.01 in0.3 mm 0.01 in0.3 mm
08:07 PM 37.4°F3.0°C 35.6°F2.0°C 93% 5.8 mph WSW9.3 kmh WSW 6.9 mph11.1 kmh 30.09 in1019.0 mb - 0.01 in0.3 mm 0.01 in0.3 mm
08:13 PM 37.4°F3.0°C 35.6°F2.0°C 93% 5.8 mph WSW9.3 kmh WSW 8.0 mph12.9 kmh 30.09 in1019.0 mb - 0.01 in0.3 mm 0.01 in0.3 mm
08:18 PM 37.4°F3.0°C 35.6°F2.0°C 93% 3.4 mph WSW5.5 kmh WSW 5.8 mph9.3 kmh 30.09 in1019.0 mb - 0.01 in0.3 mm 0.01 in0.3 mm
08:24 PM 37.5°F3.1°C 35.6°F2.0°C 93% 2.3 mph WNW3.7 kmh WNW 3.4 mph5.5 kmh 30.09 in1019.0 mb - 0.01 in0.3 mm 0.01 in0.3 mm
08:30 PM 37.4°F3.0°C 35.6°F2.0°C 93% 3.4 mph WSW5.5 kmh WSW 6.9 mph11.1 kmh 30.09 in1019.0 mb - 0.01 in0.3 mm 0.01 in0.3 mm
08:35 PM 37.4°F3.0°C 35.6°F2.0°C 93% 5.8 mph WSW9.3 kmh WSW 8.0 mph12.9 kmh 30.09 in1019.0 mb - 0.01 in0.3 mm 0.01 in0.3 mm
08:41 PM 37.3°F2.9°C 35.5°F1.9°C 93% 4.6 mph WSW7.4 kmh WSW 9.2 mph14.8 kmh 30.09 in1019.0 mb - 0.01 in0.3 mm 0.01 in0.3 mm
08:46 PM 37.3°F2.9°C 35.5°F1.9°C 93% 4.6 mph WSW7.4 kmh WSW 6.9 mph11.1 kmh 30.09 in1019.0 mb - 0.01 in0.3 mm 0.01 in0.3 mm
08:52 PM 37.2°F2.9°C 35.6°F2.0°C 94% 4.6 mph WSW7.4 kmh WSW 6.9 mph11.1 kmh 30.09 in1019.0 mb - 0.01 in0.3 mm 0.01 in0.3 mm
08:58 PM 37.1°F2.8°C 35.5°F1.9°C 94% 3.4 mph WSW5.5 kmh WSW 6.9 mph11.1 kmh 30.09 in1019.0 mb - 0.01 in0.3 mm 0.01 in0.3 mm
09:03 PM 37.1°F2.8°C 35.5°F1.9°C 94% 4.6 mph W7.4 kmh W 6.9 mph11.1 kmh 30.09 in1019.0 mb - 0.01 in0.3 mm 0.01 in0.3 mm
09:09 PM 37.0°F2.8°C 35.4°F1.9°C 94% 5.8 mph WSW9.3 kmh WSW 8.0 mph12.9 kmh 30.09 in1019.0 mb - 0.01 in0.3 mm 0.01 in0.3 mm
09:15 PM 36.9°F2.7°C 35.3°F1.8°C 94% 4.6 mph WSW7.4 kmh WSW 6.9 mph11.1 kmh 30.09 in1019.0 mb - 0.01 in0.3 mm 0.01 in0.3 mm
09:20 PM 36.9°F2.7°C 35.3°F1.8°C 94% 4.6 mph WSW7.4 kmh WSW 6.9 mph11.1 kmh 30.09 in1019.0 mb - 0.01 in0.3 mm 0.01 in0.3 mm
09:26 PM 36.9°F2.7°C 35.3°F1.8°C 94% 5.8 mph WSW9.3 kmh WSW 8.0 mph12.9 kmh 30.08 in1018.6 mb - 0.01 in0.3 mm 0.01 in0.3 mm
09:31 PM 36.8°F2.7°C 35.3°F1.8°C 94% 6.9 mph WSW11.1 kmh WSW 6.9 mph11.1 kmh 30.08 in1018.6 mb - 0.01 in0.3 mm 0.01 in0.3 mm
09:37 PM 36.8°F2.7°C 35.2°F1.8°C 94% 4.6 mph WSW7.4 kmh WSW 8.0 mph12.9 kmh 30.08 in1018.6 mb - 0.01 in0.3 mm 0.01 in0.3 mm
09:43 PM 36.7°F2.6°C 35.2°F1.8°C 94% 4.6 mph SW7.4 kmh SW 8.0 mph12.9 kmh 30.08 in1018.6 mb - 0.01 in0.3 mm 0.01 in0.3 mm
09:48 PM 36.7°F2.6°C 35.1°F1.7°C 94% 5.8 mph WSW9.3 kmh WSW 9.2 mph14.8 kmh 30.08 in1018.6 mb - 0.01 in0.3 mm 0.01 in0.3 mm
09:54 PM 36.8°F2.7°C 35.2°F1.8°C 94% 4.6 mph WSW7.4 kmh WSW 6.9 mph11.1 kmh 30.08 in1018.6 mb - 0.01 in0.3 mm 0.01 in0.3 mm
10:00 PM 36.7°F2.6°C 35.1°F1.7°C 94% 3.4 mph WSW5.5 kmh WSW 8.0 mph12.9 kmh 30.08 in1018.6 mb - 0.01 in0.3 mm 0.01 in0.3 mm
10:05 PM 36.7°F2.6°C 35.1°F1.7°C 94% 4.6 mph WSW7.4 kmh WSW 5.8 mph9.3 kmh 30.08 in1018.6 mb - 0.01 in0.3 mm 0.01 in0.3 mm
10:11 PM 36.7°F2.6°C 35.1°F1.7°C 94% 4.6 mph SW7.4 kmh SW 5.8 mph9.3 kmh 30.08 in1018.6 mb - 0.01 in0.3 mm 0.01 in0.3 mm
10:16 PM 36.7°F2.6°C 35.1°F1.7°C 94% 3.4 mph WSW5.5 kmh WSW 6.9 mph11.1 kmh 30.08 in1018.6 mb - 0.01 in0.3 mm 0.01 in0.3 mm
10:22 PM 36.7°F2.6°C 35.1°F1.7°C 94% 4.6 mph SW7.4 kmh SW 6.9 mph11.1 kmh 30.08 in1018.6 mb - 0.01 in0.3 mm 0.01 in0.3 mm
10:28 PM 36.7°F2.6°C 35.1°F1.7°C 94% 4.6 mph WSW7.4 kmh WSW 6.9 mph11.1 kmh 30.08 in1018.6 mb - 0.01 in0.3 mm 0.01 in0.3 mm
10:33 PM 36.7°F2.6°C 35.1°F1.7°C 94% 3.4 mph WSW5.5 kmh WSW 4.6 mph7.4 kmh 30.07 in1018.3 mb - 0.01 in0.3 mm 0.01 in0.3 mm
10:39 PM 36.7°F2.6°C 35.1°F1.7°C 94% 3.4 mph WSW5.5 kmh WSW 6.9 mph11.1 kmh 30.07 in1018.3 mb - 0.01 in0.3 mm 0.01 in0.3 mm
10:45 PM 36.7°F2.6°C 35.1°F1.7°C 94% 3.4 mph W5.5 kmh W 3.4 mph5.5 kmh 30.07 in1018.3 mb - 0.01 in0.3 mm 0.01 in0.3 mm
10:50 PM 36.7°F2.6°C 35.1°F1.7°C 94% 4.6 mph WSW7.4 kmh WSW 6.9 mph11.1 kmh 30.07 in1018.3 mb - 0.01 in0.3 mm 0.01 in0.3 mm
10:56 PM 36.7°F2.6°C 35.1°F1.7°C 94% 3.4 mph WSW5.5 kmh WSW 4.6 mph7.4 kmh 30.07 in1018.3 mb - 0.01 in0.3 mm 0.01 in0.3 mm
11:01 PM 36.7°F2.6°C 35.1°F1.7°C 94% 3.4 mph WSW5.5 kmh WSW 4.6 mph7.4 kmh 30.07 in1018.3 mb - 0.01 in0.3 mm 0.01 in0.3 mm
11:07 PM 36.7°F2.6°C 35.2°F1.8°C 94% 3.4 mph W5.5 kmh W 5.8 mph9.3 kmh 30.07 in1018.3 mb - 0.01 in0.3 mm 0.01 in0.3 mm
11:13 PM 36.7°F2.6°C 35.1°F1.7°C 94% 4.6 mph WSW7.4 kmh WSW 8.0 mph12.9 kmh 30.07 in1018.3 mb - 0.01 in0.3 mm 0.01 in0.3 mm
11:18 PM 36.8°F2.7°C 35.2°F1.8°C 94% 5.8 mph WSW9.3 kmh WSW 6.9 mph11.1 kmh 30.07 in1018.3 mb - 0.01 in0.3 mm 0.01 in0.3 mm
11:24 PM 36.8°F2.7°C 35.2°F1.8°C 94% 4.6 mph WSW7.4 kmh WSW 4.6 mph7.4 kmh 30.07 in1018.3 mb - 0.01 in0.3 mm 0.01 in0.3 mm
11:30 PM 36.8°F2.7°C 35.2°F1.8°C 94% 3.4 mph W5.5 kmh W 3.4 mph5.5 kmh 30.06 in1017.9 mb - 0.01 in0.3 mm 0.01 in0.3 mm
11:35 PM 36.8°F2.7°C 35.2°F1.8°C 94% 2.3 mph SW3.7 kmh SW 3.4 mph5.5 kmh 30.06 in1017.9 mb - 0.01 in0.3 mm 0.01 in0.3 mm
11:41 PM 36.8°F2.7°C 35.2°F1.8°C 94% 3.4 mph WSW5.5 kmh WSW 6.9 mph11.1 kmh 30.06 in1017.9 mb - 0.01 in0.3 mm 0.01 in0.3 mm
11:46 PM 36.8°F2.7°C 35.2°F1.8°C 94% 2.3 mph WSW3.7 kmh WSW 3.4 mph5.5 kmh 30.06 in1017.9 mb - 0.01 in0.3 mm 0.01 in0.3 mm
11:52 PM 36.8°F2.7°C 35.3°F1.8°C 94% 5.8 mph SW9.3 kmh SW 9.2 mph14.8 kmh 30.06 in1017.9 mb - 0.01 in0.3 mm 0.01 in0.3 mm
11:58 PM 36.8°F2.7°C 35.2°F1.8°C 94% 4.6 mph WSW7.4 kmh WSW 9.2 mph14.8 kmh 30.06 in1017.9 mb - 0.01 in0.3 mm 0.01 in0.3 mm